sensor_id;sensor_type;location;lat;lon;timestamp;temperature;humidity
18797;DHT22;9526;52.612;13.300;2024-02-15T00:02:22;9.90;99.90
18797;DHT22;9526;52.612;13.300;2024-02-15T00:04:46;10.00;99.90
18797;DHT22;9526;52.612;13.300;2024-02-15T00:07:09;9.90;99.90
18797;DHT22;9526;52.612;13.300;2024-02-15T00:09:33;9.90;99.90
18797;DHT22;9526;52.612;13.300;2024-02-15T00:11:57;10.00;99.90
18797;DHT22;9526;52.612;13.300;2024-02-15T00:14:22;10.00;99.90
18797;DHT22;9526;52.612;13.300;2024-02-15T00:16:46;9.90;99.90
18797;DHT22;9526;52.612;13.300;2024-02-15T00:19:11;9.90;99.90
18797;DHT22;9526;52.612;13.300;2024-02-15T00:21:43;10.00;99.90
18797;DHT22;9526;52.612;13.300;2024-02-15T00:24:06;10.00;99.90
18797;DHT22;9526;52.612;13.300;2024-02-15T00:26:30;10.00;99.90
18797;DHT22;9526;52.612;13.300;2024-02-15T00:28:54;10.00;99.90
18797;DHT22;9526;52.612;13.300;2024-02-15T00:31:20;9.90;99.90
18797;DHT22;9526;52.612;13.300;2024-02-15T00:33:43;10.00;99.90
18797;DHT22;9526;52.612;13.300;2024-02-15T00:36:10;10.00;99.90
18797;DHT22;9526;52.612;13.300;2024-02-15T00:38:34;10.00;99.90
18797;DHT22;9526;52.612;13.300;2024-02-15T00:40:59;10.00;99.90
18797;DHT22;9526;52.612;13.300;2024-02-15T00:43:23;10.00;99.90
18797;DHT22;9526;52.612;13.300;2024-02-15T00:45:46;9.90;99.90
18797;DHT22;9526;52.612;13.300;2024-02-15T00:48:10;10.00;99.90
18797;DHT22;9526;52.612;13.300;2024-02-15T00:50:34;10.00;99.90
18797;DHT22;9526;52.612;13.300;2024-02-15T00:52:59;10.00;99.90
18797;DHT22;9526;52.612;13.300;2024-02-15T00:55:23;10.00;99.90
18797;DHT22;9526;52.612;13.300;2024-02-15T00:57:47;10.00;99.90
18797;DHT22;9526;52.612;13.300;2024-02-15T01:00:11;10.00;99.90
18797;DHT22;9526;52.612;13.300;2024-02-15T01:02:36;10.00;99.90
18797;DHT22;9526;52.612;13.300;2024-02-15T01:04:59;10.00;99.90
18797;DHT22;9526;52.612;13.300;2024-02-15T01:07:23;10.00;99.90
18797;DHT22;9526;52.612;13.300;2024-02-15T01:09:51;10.00;99.90
18797;DHT22;9526;52.612;13.300;2024-02-15T01:12:15;10.00;99.90
18797;DHT22;9526;52.612;13.300;2024-02-15T01:14:39;10.00;99.90
18797;DHT22;9526;52.612;13.300;2024-02-15T01:17:02;10.00;99.90
18797;DHT22;9526;52.612;13.300;2024-02-15T01:19:26;10.00;99.90
18797;DHT22;9526;52.612;13.300;2024-02-15T01:21:50;10.00;99.90
18797;DHT22;9526;52.612;13.300;2024-02-15T01:24:15;10.00;99.90
18797;DHT22;9526;52.612;13.300;2024-02-15T01:26:40;10.00;99.90
18797;DHT22;9526;52.612;13.300;2024-02-15T01:29:05;10.00;99.90
18797;DHT22;9526;52.612;13.300;2024-02-15T01:31:28;10.10;99.90
18797;DHT22;9526;52.612;13.300;2024-02-15T01:33:52;10.00;99.90
18797;DHT22;9526;52.612;13.300;2024-02-15T01:36:17;10.00;99.90
18797;DHT22;9526;52.612;13.300;2024-02-15T01:38:41;10.00;99.90
18797;DHT22;9526;52.612;13.300;2024-02-15T01:41:04;10.00;99.90
18797;DHT22;9526;52.612;13.300;2024-02-15T01:43:30;10.00;99.90
18797;DHT22;9526;52.612;13.300;2024-02-15T01:45:54;10.00;99.90
18797;DHT22;9526;52.612;13.300;2024-02-15T01:48:20;10.00;99.90
18797;DHT22;9526;52.612;13.300;2024-02-15T01:50:44;10.00;99.90
18797;DHT22;9526;52.612;13.300;2024-02-15T01:53:09;10.00;99.90
18797;DHT22;9526;52.612;13.300;2024-02-15T01:55:34;10.00;99.90
18797;DHT22;9526;52.612;13.300;2024-02-15T01:57:59;10.00;99.90
18797;DHT22;9526;52.612;13.300;2024-02-15T02:00:25;10.00;99.90
18797;DHT22;9526;52.612;13.300;2024-02-15T02:02:49;10.00;99.90
18797;DHT22;9526;52.612;13.300;2024-02-15T02:05:12;10.00;99.90
18797;DHT22;9526;52.612;13.300;2024-02-15T02:07:36;10.10;99.90
18797;DHT22;9526;52.612;13.300;2024-02-15T02:10:00;10.00;99.90
18797;DHT22;9526;52.612;13.300;2024-02-15T02:12:24;10.00;99.90
18797;DHT22;9526;52.612;13.300;2024-02-15T02:14:49;10.00;99.90
18797;DHT22;9526;52.612;13.300;2024-02-15T02:17:14;10.00;99.90
18797;DHT22;9526;52.612;13.300;2024-02-15T02:19:38;10.00;99.90
18797;DHT22;9526;52.612;13.300;2024-02-15T02:22:02;10.00;99.90
18797;DHT22;9526;52.612;13.300;2024-02-15T02:24:27;10.00;99.90
18797;DHT22;9526;52.612;13.300;2024-02-15T02:26:53;10.10;99.90
18797;DHT22;9526;52.612;13.300;2024-02-15T02:29:17;10.10;99.90
18797;DHT22;9526;52.612;13.300;2024-02-15T02:31:42;10.00;99.90
18797;DHT22;9526;52.612;13.300;2024-02-15T02:34:06;10.00;99.90
18797;DHT22;9526;52.612;13.300;2024-02-15T02:36:31;10.10;99.90
18797;DHT22;9526;52.612;13.300;2024-02-15T02:38:55;10.10;99.90
18797;DHT22;9526;52.612;13.300;2024-02-15T02:41:22;10.10;99.90
18797;DHT22;9526;52.612;13.300;2024-02-15T02:43:47;10.10;99.90
18797;DHT22;9526;52.612;13.300;2024-02-15T02:46:11;10.10;99.90
18797;DHT22;9526;52.612;13.300;2024-02-15T02:48:35;10.10;99.90
18797;DHT22;9526;52.612;13.300;2024-02-15T02:50:59;10.10;99.90
18797;DHT22;9526;52.612;13.300;2024-02-15T02:53:23;10.10;99.90
18797;DHT22;9526;52.612;13.300;2024-02-15T02:55:47;10.10;99.90
18797;DHT22;9526;52.612;13.300;2024-02-15T02:58:11;10.10;99.90
18797;DHT22;9526;52.612;13.300;2024-02-15T03:00:36;10.20;99.90
18797;DHT22;9526;52.612;13.300;2024-02-15T03:03:01;10.20;99.90
18797;DHT22;9526;52.612;13.300;2024-02-15T03:05:25;10.10;99.90
18797;DHT22;9526;52.612;13.300;2024-02-15T03:07:49;10.20;99.90
18797;DHT22;9526;52.612;13.300;2024-02-15T03:10:14;10.20;99.90
18797;DHT22;9526;52.612;13.300;2024-02-15T03:12:38;10.20;99.90
18797;DHT22;9526;52.612;13.300;2024-02-15T03:15:02;10.20;99.90
18797;DHT22;9526;52.612;13.300;2024-02-15T03:17:28;10.20;99.90
18797;DHT22;9526;52.612;13.300;2024-02-15T03:19:53;10.20;99.90
18797;DHT22;9526;52.612;13.300;2024-02-15T03:22:17;10.20;99.90
18797;DHT22;9526;52.612;13.300;2024-02-15T03:24:41;10.20;99.90
18797;DHT22;9526;52.612;13.300;2024-02-15T03:27:05;10.20;99.90
18797;DHT22;9526;52.612;13.300;2024-02-15T03:29:29;10.20;99.90
18797;DHT22;9526;52.612;13.300;2024-02-15T03:31:52;10.30;99.90
18797;DHT22;9526;52.612;13.300;2024-02-15T03:34:19;10.30;99.90
18797;DHT22;9526;52.612;13.300;2024-02-15T03:36:43;10.30;99.90
18797;DHT22;9526;52.612;13.300;2024-02-15T03:39:07;10.20;99.90
18797;DHT22;9526;52.612;13.300;2024-02-15T03:41:31;10.30;99.90
18797;DHT22;9526;52.612;13.300;2024-02-15T03:43:55;10.30;99.90
18797;DHT22;9526;52.612;13.300;2024-02-15T03:46:20;10.30;99.90
18797;DHT22;9526;52.612;13.300;2024-02-15T03:48:45;10.30;99.90
18797;DHT22;9526;52.612;13.300;2024-02-15T03:51:10;10.30;99.90
18797;DHT22;9526;52.612;13.300;2024-02-15T03:53:34;10.40;99.90
18797;DHT22;9526;52.612;13.300;2024-02-15T03:55:59;10.40;99.90
18797;DHT22;9526;52.612;13.300;2024-02-15T03:58:23;10.30;99.90
18797;DHT22;9526;52.612;13.300;2024-02-15T04:00:47;10.30;99.90
18797;DHT22;9526;52.612;13.300;2024-02-15T04:03:11;10.30;99.90
18797;DHT22;9526;52.612;13.300;2024-02-15T04:05:35;10.30;99.90
18797;DHT22;9526;52.612;13.300;2024-02-15T04:08:00;10.30;99.90
18797;DHT22;9526;52.612;13.300;2024-02-15T04:10:25;10.30;99.90
18797;DHT22;9526;52.612;13.300;2024-02-15T04:12:48;10.30;99.90
18797;DHT22;9526;52.612;13.300;2024-02-15T04:15:12;10.30;99.90
18797;DHT22;9526;52.612;13.300;2024-02-15T04:17:39;10.30;99.90
18797;DHT22;9526;52.612;13.300;2024-02-15T04:20:05;10.30;99.90
18797;DHT22;9526;52.612;13.300;2024-02-15T04:22:30;10.30;99.90
18797;DHT22;9526;52.612;13.300;2024-02-15T04:25:01;10.30;99.90
18797;DHT22;9526;52.612;13.300;2024-02-15T04:27:24;10.30;99.90
18797;DHT22;9526;52.612;13.300;2024-02-15T04:29:48;10.30;99.90
18797;DHT22;9526;52.612;13.300;2024-02-15T04:32:12;10.30;99.90
18797;DHT22;9526;52.612;13.300;2024-02-15T04:34:38;10.30;99.90
18797;DHT22;9526;52.612;13.300;2024-02-15T04:37:02;10.30;99.90
18797;DHT22;9526;52.612;13.300;2024-02-15T04:39:28;10.30;99.90
18797;DHT22;9526;52.612;13.300;2024-02-15T04:41:54;10.40;99.90
18797;DHT22;9526;52.612;13.300;2024-02-15T04:44:18;10.40;99.90
18797;DHT22;9526;52.612;13.300;2024-02-15T04:46:43;10.40;99.90
18797;DHT22;9526;52.612;13.300;2024-02-15T04:49:07;10.40;99.90
18797;DHT22;9526;52.612;13.300;2024-02-15T04:51:32;10.30;99.90
18797;DHT22;9526;52.612;13.300;2024-02-15T04:53:55;10.30;99.90
18797;DHT22;9526;52.612;13.300;2024-02-15T04:56:20;10.40;99.90
18797;DHT22;9526;52.612;13.300;2024-02-15T04:58:46;10.40;99.90
18797;DHT22;9526;52.612;13.300;2024-02-15T05:01:11;10.40;99.90
18797;DHT22;9526;52.612;13.300;2024-02-15T05:03:36;10.40;99.90
18797;DHT22;9526;52.612;13.300;2024-02-15T05:05:59;10.40;99.90
18797;DHT22;9526;52.612;13.300;2024-02-15T05:08:23;10.40;99.90
18797;DHT22;9526;52.612;13.300;2024-02-15T05:10:48;10.40;99.90
18797;DHT22;9526;52.612;13.300;2024-02-15T05:13:13;10.40;99.90
18797;DHT22;9526;52.612;13.300;2024-02-15T05:15:40;10.40;99.90
18797;DHT22;9526;52.612;13.300;2024-02-15T05:18:04;10.40;99.90
18797;DHT22;9526;52.612;13.300;2024-02-15T05:20:30;10.40;99.90
18797;DHT22;9526;52.612;13.300;2024-02-15T05:22:54;10.40;99.90
18797;DHT22;9526;52.612;13.300;2024-02-15T05:25:18;10.40;99.90
18797;DHT22;9526;52.612;13.300;2024-02-15T05:27:47;10.40;99.90
18797;DHT22;9526;52.612;13.300;2024-02-15T05:30:12;10.40;99.90
18797;DHT22;9526;52.612;13.300;2024-02-15T05:32:38;10.40;99.90
18797;DHT22;9526;52.612;13.300;2024-02-15T05:35:07;10.40;99.90
18797;DHT22;9526;52.612;13.300;2024-02-15T05:37:32;10.40;99.90
18797;DHT22;9526;52.612;13.300;2024-02-15T05:39:56;10.40;99.90
18797;DHT22;9526;52.612;13.300;2024-02-15T05:42:20;10.40;99.90
18797;DHT22;9526;52.612;13.300;2024-02-15T05:44:46;10.50;99.90
18797;DHT22;9526;52.612;13.300;2024-02-15T05:47:09;10.40;99.90
18797;DHT22;9526;52.612;13.300;2024-02-15T05:49:35;10.40;99.90
18797;DHT22;9526;52.612;13.300;2024-02-15T05:51:59;10.40;99.90
18797;DHT22;9526;52.612;13.300;2024-02-15T05:54:23;10.40;99.90
18797;DHT22;9526;52.612;13.300;2024-02-15T05:56:47;10.40;99.90
18797;DHT22;9526;52.612;13.300;2024-02-15T05:59:14;10.50;99.90
18797;DHT22;9526;52.612;13.300;2024-02-15T06:01:39;10.50;99.90
18797;DHT22;9526;52.612;13.300;2024-02-15T06:04:03;10.50;99.90
18797;DHT22;9526;52.612;13.300;2024-02-15T06:06:31;10.50;99.90
18797;DHT22;9526;52.612;13.300;2024-02-15T06:08:55;10.50;99.90
18797;DHT22;9526;52.612;13.300;2024-02-15T06:11:22;10.50;99.90
18797;DHT22;9526;52.612;13.300;2024-02-15T06:13:45;10.50;99.90
18797;DHT22;9526;52.612;13.300;2024-02-15T06:16:09;10.50;99.90
18797;DHT22;9526;52.612;13.300;2024-02-15T06:18:33;10.50;99.90
18797;DHT22;9526;52.612;13.300;2024-02-15T06:20:57;10.50;99.90
18797;DHT22;9526;52.612;13.300;2024-02-15T06:23:23;10.50;99.90
18797;DHT22;9526;52.612;13.300;2024-02-15T06:25:47;10.50;99.90
18797;DHT22;9526;52.612;13.300;2024-02-15T06:28:15;10.50;99.90
18797;DHT22;9526;52.612;13.300;2024-02-15T06:31:02;10.50;99.90
18797;DHT22;9526;52.612;13.300;2024-02-15T06:33:44;10.50;99.90
18797;DHT22;9526;52.612;13.300;2024-02-15T06:36:25;10.50;99.90
18797;DHT22;9526;52.612;13.300;2024-02-15T06:39:07;10.50;99.90
18797;DHT22;9526;52.612;13.300;2024-02-15T06:41:49;10.50;99.90
18797;DHT22;9526;52.612;13.300;2024-02-15T06:44:13;10.60;99.90
18797;DHT22;9526;52.612;13.300;2024-02-15T06:46:37;10.50;99.90
18797;DHT22;9526;52.612;13.300;2024-02-15T06:49:01;10.60;99.90
18797;DHT22;9526;52.612;13.300;2024-02-15T06:51:27;10.60;99.90
18797;DHT22;9526;52.612;13.300;2024-02-15T06:53:51;10.60;99.90
18797;DHT22;9526;52.612;13.300;2024-02-15T06:56:19;10.60;99.90
18797;DHT22;9526;52.612;13.300;2024-02-15T06:58:43;10.70;99.90
18797;DHT22;9526;52.612;13.300;2024-02-15T07:01:06;10.70;99.90
18797;DHT22;9526;52.612;13.300;2024-02-15T07:03:31;10.70;99.90
18797;DHT22;9526;52.612;13.300;2024-02-15T07:05:55;10.70;99.90
18797;DHT22;9526;52.612;13.300;2024-02-15T07:08:19;10.70;99.90
18797;DHT22;9526;52.612;13.300;2024-02-15T07:10:43;10.70;99.90
18797;DHT22;9526;52.612;13.300;2024-02-15T07:13:08;10.70;99.90
18797;DHT22;9526;52.612;13.300;2024-02-15T07:15:32;10.80;99.90
18797;DHT22;9526;52.612;13.300;2024-02-15T07:18:00;10.70;99.90
18797;DHT22;9526;52.612;13.300;2024-02-15T07:20:23;10.80;99.90
18797;DHT22;9526;52.612;13.300;2024-02-15T07:22:47;10.80;99.90
18797;DHT22;9526;52.612;13.300;2024-02-15T07:25:11;10.80;99.90
18797;DHT22;9526;52.612;13.300;2024-02-15T07:27:36;10.80;99.90
18797;DHT22;9526;52.612;13.300;2024-02-15T07:30:02;10.80;99.90
18797;DHT22;9526;52.612;13.300;2024-02-15T07:32:27;10.80;99.90
18797;DHT22;9526;52.612;13.300;2024-02-15T07:34:51;10.80;99.90
18797;DHT22;9526;52.612;13.300;2024-02-15T07:37:15;10.90;99.90
18797;DHT22;9526;52.612;13.300;2024-02-15T07:39:38;10.90;99.90
18797;DHT22;9526;52.612;13.300;2024-02-15T07:42:02;10.90;99.90
18797;DHT22;9526;52.612;13.300;2024-02-15T07:44:27;10.90;99.90
18797;DHT22;9526;52.612;13.300;2024-02-15T07:46:54;11.00;99.90
18797;DHT22;9526;52.612;13.300;2024-02-15T07:49:18;11.00;99.90
18797;DHT22;9526;52.612;13.300;2024-02-15T07:51:42;11.00;99.90
18797;DHT22;9526;52.612;13.300;2024-02-15T07:54:06;11.00;99.90
18797;DHT22;9526;52.612;13.300;2024-02-15T07:56:29;11.10;99.90
18797;DHT22;9526;52.612;13.300;2024-02-15T07:58:53;11.10;99.90
18797;DHT22;9526;52.612;13.300;2024-02-15T08:01:17;11.20;99.90
18797;DHT22;9526;52.612;13.300;2024-02-15T08:03:44;11.20;99.90
18797;DHT22;9526;52.612;13.300;2024-02-15T08:06:08;11.20;99.90
18797;DHT22;9526;52.612;13.300;2024-02-15T08:08:35;11.30;99.90
18797;DHT22;9526;52.612;13.300;2024-02-15T08:10:58;11.30;99.90
18797;DHT22;9526;52.612;13.300;2024-02-15T08:13:23;11.30;99.90
18797;DHT22;9526;52.612;13.300;2024-02-15T08:15:51;11.40;99.90
18797;DHT22;9526;52.612;13.300;2024-02-15T08:18:15;11.30;99.90
18797;DHT22;9526;52.612;13.300;2024-02-15T08:20:40;11.30;99.90
18797;DHT22;9526;52.612;13.300;2024-02-15T08:23:07;11.40;99.90
18797;DHT22;9526;52.612;13.300;2024-02-15T08:25:32;11.40;99.90
18797;DHT22;9526;52.612;13.300;2024-02-15T08:27:59;11.40;99.90
18797;DHT22;9526;52.612;13.300;2024-02-15T08:30:27;11.40;99.90
18797;DHT22;9526;52.612;13.300;2024-02-15T08:32:51;11.40;99.90
18797;DHT22;9526;52.612;13.300;2024-02-15T08:35:17;11.50;99.90
18797;DHT22;9526;52.612;13.300;2024-02-15T08:37:42;11.50;99.90
18797;DHT22;9526;52.612;13.300;2024-02-15T08:40:10;11.50;99.90
18797;DHT22;9526;52.612;13.300;2024-02-15T08:42:35;11.50;99.90
18797;DHT22;9526;52.612;13.300;2024-02-15T08:45:00;11.50;99.90
18797;DHT22;9526;52.612;13.300;2024-02-15T08:47:24;11.50;99.90
18797;DHT22;9526;52.612;13.300;2024-02-15T08:49:49;11.60;99.90
18797;DHT22;9526;52.612;13.300;2024-02-15T08:52:13;11.60;99.90
18797;DHT22;9526;52.612;13.300;2024-02-15T08:54:38;11.60;99.90
18797;DHT22;9526;52.612;13.300;2024-02-15T08:57:02;11.70;99.90
18797;DHT22;9526;52.612;13.300;2024-02-15T08:59:26;11.70;99.90
18797;DHT22;9526;52.612;13.300;2024-02-15T09:01:51;11.80;99.90
18797;DHT22;9526;52.612;13.300;2024-02-15T09:04:16;11.80;99.90
18797;DHT22;9526;52.612;13.300;2024-02-15T09:06:41;11.90;99.90
18797;DHT22;9526;52.612;13.300;2024-02-15T09:09:06;11.90;99.90
18797;DHT22;9526;52.612;13.300;2024-02-15T09:11:32;12.00;99.90
18797;DHT22;9526;52.612;13.300;2024-02-15T09:13:57;12.00;99.90
18797;DHT22;9526;52.612;13.300;2024-02-15T09:16:22;12.00;99.90
18797;DHT22;9526;52.612;13.300;2024-02-15T09:18:47;12.10;99.90
18797;DHT22;9526;52.612;13.300;2024-02-15T09:21:11;12.10;99.90
18797;DHT22;9526;52.612;13.300;2024-02-15T09:23:37;12.20;99.90
18797;DHT22;9526;52.612;13.300;2024-02-15T09:26:03;12.30;99.90
18797;DHT22;9526;52.612;13.300;2024-02-15T09:28:29;12.30;99.90
18797;DHT22;9526;52.612;13.300;2024-02-15T09:30:53;12.40;99.90
18797;DHT22;9526;52.612;13.300;2024-02-15T09:33:22;12.40;99.90
18797;DHT22;9526;52.612;13.300;2024-02-15T09:35:47;12.40;99.90
18797;DHT22;9526;52.612;13.300;2024-02-15T09:38:11;12.40;99.90
18797;DHT22;9526;52.612;13.300;2024-02-15T09:40:40;12.40;99.90
18797;DHT22;9526;52.612;13.300;2024-02-15T09:43:06;12.30;99.90
18797;DHT22;9526;52.612;13.300;2024-02-15T09:45:32;12.40;99.90
18797;DHT22;9526;52.612;13.300;2024-02-15T09:48:02;12.40;99.90
18797;DHT22;9526;52.612;13.300;2024-02-15T09:50:31;12.40;99.90
18797;DHT22;9526;52.612;13.300;2024-02-15T09:52:59;12.40;99.90
18797;DHT22;9526;52.612;13.300;2024-02-15T09:55:24;12.40;99.90
18797;DHT22;9526;52.612;13.300;2024-02-15T09:57:50;12.40;99.90
18797;DHT22;9526;52.612;13.300;2024-02-15T10:00:15;12.40;99.90
18797;DHT22;9526;52.612;13.300;2024-02-15T10:02:42;12.40;99.90
18797;DHT22;9526;52.612;13.300;2024-02-15T10:05:08;12.50;99.90
18797;DHT22;9526;52.612;13.300;2024-02-15T10:07:34;12.50;99.90
18797;DHT22;9526;52.612;13.300;2024-02-15T10:10:14;12.50;99.90
18797;DHT22;9526;52.612;13.300;2024-02-15T10:12:40;12.50;99.90
18797;DHT22;9526;52.612;13.300;2024-02-15T10:15:05;12.60;99.90
18797;DHT22;9526;52.612;13.300;2024-02-15T10:17:32;12.60;99.90
18797;DHT22;9526;52.612;13.300;2024-02-15T10:20:06;12.70;99.90
18797;DHT22;9526;52.612;13.300;2024-02-15T10:22:32;12.80;99.90
18797;DHT22;9526;52.612;13.300;2024-02-15T10:25:11;12.80;99.90
18797;DHT22;9526;52.612;13.300;2024-02-15T10:27:35;12.80;99.90
18797;DHT22;9526;52.612;13.300;2024-02-15T10:30:14;12.80;99.90
18797;DHT22;9526;52.612;13.300;2024-02-15T10:32:39;12.90;99.90
18797;DHT22;9526;52.612;13.300;2024-02-15T10:35:05;12.90;99.90
18797;DHT22;9526;52.612;13.300;2024-02-15T10:37:29;12.90;99.90
18797;DHT22;9526;52.612;13.300;2024-02-15T10:40:04;12.90;99.90
18797;DHT22;9526;52.612;13.300;2024-02-15T10:42:29;13.00;99.90
18797;DHT22;9526;52.612;13.300;2024-02-15T10:44:53;13.10;99.90
18797;DHT22;9526;52.612;13.300;2024-02-15T10:47:18;13.10;99.90
18797;DHT22;9526;52.612;13.300;2024-02-15T10:49:42;13.10;99.90
18797;DHT22;9526;52.612;13.300;2024-02-15T10:52:11;13.20;99.90
18797;DHT22;9526;52.612;13.300;2024-02-15T10:54:47;13.30;99.90
18797;DHT22;9526;52.612;13.300;2024-02-15T10:57:18;13.30;99.90
18797;DHT22;9526;52.612;13.300;2024-02-15T10:59:54;13.40;99.90
18797;DHT22;9526;52.612;13.300;2024-02-15T11:02:26;13.50;99.90
18797;DHT22;9526;52.612;13.300;2024-02-15T11:04:53;13.50;99.90
18797;DHT22;9526;52.612;13.300;2024-02-15T11:07:20;13.60;99.90
18797;DHT22;9526;52.612;13.300;2024-02-15T11:09:49;13.70;99.90
18797;DHT22;9526;52.612;13.300;2024-02-15T11:12:14;13.70;99.90
18797;DHT22;9526;52.612;13.300;2024-02-15T11:14:38;13.70;99.90
18797;DHT22;9526;52.612;13.300;2024-02-15T11:17:02;13.80;99.90
18797;DHT22;9526;52.612;13.300;2024-02-15T11:19:42;13.80;99.90
18797;DHT22;9526;52.612;13.300;2024-02-15T11:22:10;13.90;99.90
18797;DHT22;9526;52.612;13.300;2024-02-15T11:24:46;13.80;99.90
18797;DHT22;9526;52.612;13.300;2024-02-15T11:27:10;13.90;99.90
18797;DHT22;9526;52.612;13.300;2024-02-15T11:29:48;13.80;99.90
18797;DHT22;9526;52.612;13.300;2024-02-15T11:32:35;13.90;99.90
18797;DHT22;9526;52.612;13.300;2024-02-15T11:35:03;13.90;99.90
18797;DHT22;9526;52.612;13.300;2024-02-15T11:37:57;13.90;99.90
18797;DHT22;9526;52.612;13.300;2024-02-15T11:40:27;13.90;99.90
18797;DHT22;9526;52.612;13.300;2024-02-15T11:42:53;13.90;99.90
18797;DHT22;9526;52.612;13.300;2024-02-15T11:45:20;13.80;99.90
18797;DHT22;9526;52.612;13.300;2024-02-15T11:47:47;13.70;99.90
18797;DHT22;9526;52.612;13.300;2024-02-15T11:50:12;13.70;99.90
18797;DHT22;9526;52.612;13.300;2024-02-15T11:52:37;13.70;99.90
18797;DHT22;9526;52.612;13.300;2024-02-15T11:55:07;13.70;99.90
18797;DHT22;9526;52.612;13.300;2024-02-15T11:57:33;13.70;99.90
18797;DHT22;9526;52.612;13.300;2024-02-15T12:00:21;13.70;99.90
18797;DHT22;9526;52.612;13.300;2024-02-15T12:03:04;13.80;99.90
18797;DHT22;9526;52.612;13.300;2024-02-15T12:05:45;13.80;99.90
18797;DHT22;9526;52.612;13.300;2024-02-15T12:08:28;13.80;99.90
18797;DHT22;9526;52.612;13.300;2024-02-15T12:11:09;13.80;99.90
18797;DHT22;9526;52.612;13.300;2024-02-15T12:13:55;13.80;99.90
18797;DHT22;9526;52.612;13.300;2024-02-15T12:16:36;13.90;99.90
18797;DHT22;9526;52.612;13.300;2024-02-15T12:19:18;13.80;99.90
18797;DHT22;9526;52.612;13.300;2024-02-15T12:21:44;13.90;99.90
18797;DHT22;9526;52.612;13.300;2024-02-15T12:24:08;13.80;99.90
18797;DHT22;9526;52.612;13.300;2024-02-15T12:26:34;13.80;99.90
18797;DHT22;9526;52.612;13.300;2024-02-15T12:28:59;13.90;99.90
18797;DHT22;9526;52.612;13.300;2024-02-15T12:31:24;13.90;99.90
18797;DHT22;9526;52.612;13.300;2024-02-15T12:34:00;13.90;99.90
18797;DHT22;9526;52.612;13.300;2024-02-15T12:36:29;14.00;99.90
18797;DHT22;9526;52.612;13.300;2024-02-15T12:38:59;14.00;99.90
18797;DHT22;9526;52.612;13.300;2024-02-15T12:41:24;14.00;99.90
18797;DHT22;9526;52.612;13.300;2024-02-15T12:43:52;14.00;99.90
18797;DHT22;9526;52.612;13.300;2024-02-15T12:46:19;14.00;99.90
18797;DHT22;9526;52.612;13.300;2024-02-15T12:48:44;14.00;99.90
18797;DHT22;9526;52.612;13.300;2024-02-15T12:51:13;14.00;99.90
18797;DHT22;9526;52.612;13.300;2024-02-15T12:53:37;14.00;99.90
18797;DHT22;9526;52.612;13.300;2024-02-15T12:56:01;14.10;99.90
18797;DHT22;9526;52.612;13.300;2024-02-15T12:58:26;14.20;99.90
18797;DHT22;9526;52.612;13.300;2024-02-15T13:00:54;14.30;99.90
18797;DHT22;9526;52.612;13.300;2024-02-15T13:03:22;14.30;99.90
18797;DHT22;9526;52.612;13.300;2024-02-15T13:05:46;14.40;99.90
18797;DHT22;9526;52.612;13.300;2024-02-15T13:08:10;14.40;99.90
18797;DHT22;9526;52.612;13.300;2024-02-15T13:10:36;14.50;99.90
18797;DHT22;9526;52.612;13.300;2024-02-15T13:13:02;14.50;99.90
18797;DHT22;9526;52.612;13.300;2024-02-15T13:15:26;14.50;99.90
18797;DHT22;9526;52.612;13.300;2024-02-15T13:17:55;14.60;99.90
18797;DHT22;9526;52.612;13.300;2024-02-15T13:20:21;14.60;99.90
18797;DHT22;9526;52.612;13.300;2024-02-15T13:22:54;14.70;99.90
18797;DHT22;9526;52.612;13.300;2024-02-15T13:25:22;14.60;99.90
18797;DHT22;9526;52.612;13.300;2024-02-15T13:27:46;14.60;99.90
18797;DHT22;9526;52.612;13.300;2024-02-15T13:30:10;14.70;99.90
18797;DHT22;9526;52.612;13.300;2024-02-15T13:32:36;14.60;99.90
18797;DHT22;9526;52.612;13.300;2024-02-15T13:35:01;14.70;99.90
18797;DHT22;9526;52.612;13.300;2024-02-15T13:37:31;14.70;99.90
18797;DHT22;9526;52.612;13.300;2024-02-15T13:39:55;14.70;99.90
18797;DHT22;9526;52.612;13.300;2024-02-15T13:42:18;14.70;99.90
18797;DHT22;9526;52.612;13.300;2024-02-15T13:44:42;14.70;99.90
18797;DHT22;9526;52.612;13.300;2024-02-15T13:47:08;14.60;99.90
18797;DHT22;9526;52.612;13.300;2024-02-15T13:49:31;14.70;99.90
18797;DHT22;9526;52.612;13.300;2024-02-15T13:51:57;14.70;99.90
18797;DHT22;9526;52.612;13.300;2024-02-15T13:54:25;14.70;99.90
18797;DHT22;9526;52.612;13.300;2024-02-15T13:56:50;14.70;99.90
18797;DHT22;9526;52.612;13.300;2024-02-15T13:59:14;14.70;99.90
18797;DHT22;9526;52.612;13.300;2024-02-15T14:01:38;14.80;99.90
18797;DHT22;9526;52.612;13.300;2024-02-15T14:04:07;14.80;99.90
18797;DHT22;9526;52.612;13.300;2024-02-15T14:06:31;14.80;99.90
18797;DHT22;9526;52.612;13.300;2024-02-15T14:08:58;14.80;99.90
18797;DHT22;9526;52.612;13.300;2024-02-15T14:11:24;14.80;99.90
18797;DHT22;9526;52.612;13.300;2024-02-15T14:13:48;14.90;99.90
18797;DHT22;9526;52.612;13.300;2024-02-15T14:16:11;14.80;99.90
18797;DHT22;9526;52.612;13.300;2024-02-15T14:18:35;14.90;99.90
18797;DHT22;9526;52.612;13.300;2024-02-15T14:20:59;14.90;99.90
18797;DHT22;9526;52.612;13.300;2024-02-15T14:23:23;14.90;99.90
18797;DHT22;9526;52.612;13.300;2024-02-15T14:25:49;14.90;99.90
18797;DHT22;9526;52.612;13.300;2024-02-15T14:28:16;14.80;99.90
18797;DHT22;9526;52.612;13.300;2024-02-15T14:30:40;14.90;99.90
18797;DHT22;9526;52.612;13.300;2024-02-15T14:33:21;14.80;99.90
18797;DHT22;9526;52.612;13.300;2024-02-15T14:35:53;14.90;99.90
18797;DHT22;9526;52.612;13.300;2024-02-15T14:38:18;14.80;99.90
18797;DHT22;9526;52.612;13.300;2024-02-15T14:40:44;14.90;99.90
18797;DHT22;9526;52.612;13.300;2024-02-15T14:43:10;14.90;99.90
18797;DHT22;9526;52.612;13.300;2024-02-15T14:45:41;14.90;99.90
18797;DHT22;9526;52.612;13.300;2024-02-15T14:48:06;14.90;99.90
18797;DHT22;9526;52.612;13.300;2024-02-15T14:50:32;14.90;99.90
18797;DHT22;9526;52.612;13.300;2024-02-15T14:52:57;14.90;99.90
18797;DHT22;9526;52.612;13.300;2024-02-15T14:55:30;14.90;99.90
18797;DHT22;9526;52.612;13.300;2024-02-15T14:57:55;14.80;99.90
18797;DHT22;9526;52.612;13.300;2024-02-15T15:00:25;14.80;99.90
18797;DHT22;9526;52.612;13.300;2024-02-15T15:02:50;14.70;99.90
18797;DHT22;9526;52.612;13.300;2024-02-15T15:05:14;14.70;99.90
18797;DHT22;9526;52.612;13.300;2024-02-15T15:07:55;14.70;99.90
18797;DHT22;9526;52.612;13.300;2024-02-15T15:10:35;14.60;99.90
18797;DHT22;9526;52.612;13.300;2024-02-15T15:13:17;14.50;99.90
18797;DHT22;9526;52.612;13.300;2024-02-15T15:15:41;14.50;99.90
18797;DHT22;9526;52.612;13.300;2024-02-15T15:18:06;14.50;99.90
18797;DHT22;9526;52.612;13.300;2024-02-15T15:20:31;14.40;99.90
18797;DHT22;9526;52.612;13.300;2024-02-15T15:22:56;14.50;99.90
18797;DHT22;9526;52.612;13.300;2024-02-15T15:25:23;14.40;99.90